Pagrindinis puslapis
METAR-TAF:

METAR-TAF

Oro uostai :

Nosy Be, Madagaskaras

platuma: 13-19S, ilguma: 048-19E, Aukštis: 10 m

Dabartinis oras

Ataskaita buvo paskelbta 18 minutes, ne 15:00 UTC
Vėjas 4 kt iš Vakarų/Pietvakarių
Temperatūra 24°C
Drėgmė 74%
Slėgis 1014 hPa
Matomumas 10 km arba daugiau
Išsisklaidę debesys ne aukštis 2000 ft

METAR: FMNN 171500Z 24004KT 9999 SCT020 24/19 Q1014

Laikas: 18:18 (15:18 UTC)

Prognozė

Ataskaita buvo paskelbta 4 valandos ir 18 minutes, ne 11:00 UTC
Prognozė galioja nuo 17 metu 12 UTC su 18 metu 12 UTC
Vėjas 10 kt iš Vakarų
Matomumas 10 km arba daugiau
Išsisklaidę debesys ne aukštis 2000 ft
Tapsmas
nuo 17 metu 18 UTC su 17 metu 21 UTC
Vėjas 5 kt iš Rytų/Šiaurės Rytų

TAF: FMNN 171100Z 1712/1812 26010KT 9999 SCT020 BECMG 1718/1721 06005KT

Orai ataskaitas ir orų prognozės (METAR, TAF).

turimą stotys yra geltonos ir raudonos taškus žemėlapyje.

Perkelti pele per norėdami pamatyti stoties vardą.

Tada spustelėkite, norėdami matyti oro stebėjimo ir prognozės.

Norėdami pakeisti žemėlapį: spustelėkite ant žalios mygtukų su juodo kryžiaus žemyn,; žalią mygtuką su brūkšneliu, jei norite nutolinti; arba žalių rodyklių gretimoms žemėlapius.


METAR-TAF: